Time;durP1;ratioP1;P1;durP2;ratioP2;P2;SDS_P1;SDS_P2;PMS_P1;PMS_P2;Temp;Humidity;BMP_temperature;BMP_pressure;BME280_temperature;BME280_humidity;BME280_pressure;Samples;Min_cycle;Max_cycle;Signal;HPM_P1;HPM_P2
2021/03/12 00:02:47;;;;;;;29.35;16.42;;;;;;;-9.36;60.30;101197.73;1727394;82;21162;-75
2021/03/12 00:05:59;;;;;;;26.97;13.98;;;;;;;-9.49;60.14;101186.06;1726778;83;21174;-75
2021/03/12 00:09:04;;;;;;;40.63;14.93;;;;;;;-9.62;60.26;101188.05;1726877;83;21839;-75
2021/03/12 00:12:12;;;;;;;32.75;15.18;;;;;;;-9.70;60.53;101176.27;1726913;83;21225;-75
2021/03/12 00:15:15;;;;;;;37.45;20.75;;;;;;;-9.72;60.81;101167.94;1726995;83;21715;-75
2021/03/12 00:18:22;;;;;;;28.83;15.43;;;;;;;-9.79;61.05;101169.36;1726812;83;21304;-75
2021/03/12 00:21:27;;;;;;;33.55;16.23;;;;;;;-9.88;61.35;101167.32;1726931;83;21814;-75
2021/03/12 00:24:33;;;;;;;36.30;21.05;;;;;;;-9.95;61.61;101166.56;1726882;83;21348;-75
2021/03/12 00:27:38;;;;;;;29.30;15.13;;;;;;;-10.01;62.01;101156.09;1726946;83;21908;-75
2021/03/12 00:30:43;;;;;;;25.95;13.80;;;;;;;-10.09;62.05;101148.27;1726936;83;21280;-75
2021/03/12 00:33:49;;;;;;;32.23;17.40;;;;;;;-10.14;62.11;101152.77;1727102;83;21276;-75
2021/03/12 00:36:54;;;;;;;27.10;13.83;;;;;;;-10.16;62.39;101151.03;1726998;83;21736;-75
2021/03/12 00:39:59;;;;;;;30.43;13.48;;;;;;;-10.20;62.56;101155.98;1726948;83;21965;-75
2021/03/12 00:43:04;;;;;;;28.25;15.28;;;;;;;-10.27;62.82;101149.06;1726941;83;21858;-75
2021/03/12 00:46:15;;;;;;;31.07;16.52;;;;;;;-10.30;62.96;101142.06;1726758;83;21299;-75
2021/03/12 00:49:20;;;;;;;36.63;13.98;;;;;;;-10.32;63.06;101134.58;1727000;83;21803;-75
2021/03/12 00:52:26;;;;;;;34.20;19.98;;;;;;;-10.36;63.42;101129.78;1726940;83;21320;-75
2021/03/12 00:55:31;;;;;;;32.88;18.87;;;;;;;-10.39;63.64;101128.98;1726883;83;21229;-75
2021/03/12 00:58:39;;;;;;;42.00;21.35;;;;;;;-10.44;63.83;101130.83;1726851;83;21308;-75
2021/03/12 01:01:43;;;;;;;34.60;14.20;;;;;;;-10.46;63.79;101128.64;1726830;83;21189;-75
2021/03/12 01:04:50;;;;;;;33.55;22.35;;;;;;;-10.42;63.72;101130.34;1727066;83;21180;-75
2021/03/12 01:07:55;;;;;;;29.52;16.30;;;;;;;-10.40;63.60;101126.76;1726980;83;21309;-75
2021/03/12 01:11:00;;;;;;;30.30;15.43;;;;;;;-10.41;63.54;101130.77;1726897;83;21316;-75
2021/03/12 01:14:06;;;;;;;28.92;13.80;;;;;;;-10.44;63.56;101126.86;1726985;83;21875;-76
2021/03/12 01:17:12;;;;;;;28.47;15.15;;;;;;;-10.49;63.69;101122.06;1726922;83;21316;-75
2021/03/12 01:20:23;;;;;;;29.15;16.30;;;;;;;-10.55;63.85;101121.72;1727020;83;21312;-75
2021/03/12 01:23:30;;;;;;;28.25;15.58;;;;;;;-10.63;64.08;101112.60;1726874;83;21893;-75
2021/03/12 01:26:35;;;;;;;26.62;12.68;;;;;;;-10.69;64.25;101108.70;1726851;83;21332;-75
2021/03/12 01:29:40;;;;;;;30.90;17.77;;;;;;;-10.70;64.26;101101.68;1726856;83;21375;-75
2021/03/12 01:32:48;;;;;;;37.45;15.08;;;;;;;-10.72;64.29;101091.59;1726946;83;21209;-75
2021/03/12 01:35:54;;;;;;;25.45;14.28;;;;;;;-10.75;64.38;101086.80;1727036;83;21202;-75
2021/03/12 01:39:06;;;;;;;31.20;16.35;;;;;;;-10.78;64.23;101077.58;1727000;83;21328;-76
2021/03/12 01:42:13;;;;;;;29.55;15.00;;;;;;;-10.82;64.22;101089.54;1726826;83;21337;-75
2021/03/12 01:45:22;;;;;;;24.37;12.93;;;;;;;-10.85;64.35;101086.06;1726982;83;21166;-75
2021/03/12 01:48:29;;;;;;;36.73;18.70;;;;;;;-10.84;64.39;101093.09;1726925;83;21316;-75
2021/03/12 01:51:35;;;;;;;27.30;12.98;;;;;;;-10.87;64.57;101092.70;1726964;83;21284;-75
2021/03/12 01:54:41;;;;;;;26.55;12.85;;;;;;;-10.88;64.56;101089.61;1711212;83;21193;-75
2021/03/12 01:57:47;;;;;;;39.38;15.40;;;;;;;-10.88;64.41;101088.28;1726862;83;21285;-75
2021/03/12 02:00:54;;;;;;;37.90;13.70;;;;;;;-10.89;64.38;101093.60;1727002;83;21167;-75
2021/03/12 02:04:01;;;;;;;34.45;12.58;;;;;;;-10.89;64.26;101094.92;1734035;82;21204;-75
2021/03/12 02:07:11;;;;;;;31.93;13.03;;;;;;;-10.90;64.30;101094.05;1748542;82;21326;-75
2021/03/12 02:10:25;;;;;;;25.80;10.35;;;;;;;-10.91;64.33;101098.05;1743900;82;21312;-75
2021/03/12 02:13:57;;;;;;;24.00;10.53;;;;;;;-10.92;64.55;101107.72;1747727;82;21228;-75
2021/03/12 02:17:13;;;;;;;21.80;10.20;;;;;;;-11.00;64.91;101113.59;1748461;82;21299;-75
2021/03/12 02:20:51;;;;;;;20.68;10.38;;;;;;;-11.07;65.48;101111.45;1748521;82;21306;-75
2021/03/12 02:24:17;;;;;;;26.30;9.43;;;;;;;-11.13;65.97;101117.28;1748604;82;21288;-75
2021/03/12 02:27:24;;;;;;;23.85;8.55;;;;;;;-11.20;66.47;101119.11;1748314;82;21308;-75
2021/03/12 02:30:29;;;;;;;24.35;9.63;;;;;;;-11.26;66.92;101123.16;1748424;82;21299;-75
2021/03/12 02:33:36;;;;;;;26.02;10.00;;;;;;;-11.31;66.71;101115.74;1748418;82;21308;-75
2021/03/12 02:36:49;;;;;;;18.82;7.70;;;;;;;-11.35;66.50;101114.90;1748468;82;21228;-75
2021/03/12 02:39:58;;;;;;;22.40;9.05;;;;;;;-11.39;66.47;101114.50;1748520;82;21380;-75
2021/03/12 02:43:06;;;;;;;25.45;8.63;;;;;;;-11.41;66.64;101122.91;1748420;82;21307;-75
2021/03/12 02:46:13;;;;;;;24.25;10.00;;;;;;;-11.44;66.94;101112.82;1748462;82;21280;-75
2021/03/12 02:49:21;;;;;;;24.70;10.80;;;;;;;-11.48;66.96;101112.42;1748420;82;21342;-75
2021/03/12 02:52:27;;;;;;;33.15;11.25;;;;;;;-11.48;66.94;101118.58;1748457;82;21311;-75
2021/03/12 02:55:31;;;;;;;22.85;10.00;;;;;;;-11.49;67.08;101116.84;1748480;82;21323;-75
2021/03/12 02:58:40;;;;;;;19.55;8.13;;;;;;;-11.51;67.38;101128.33;1748426;82;21332;-75
2021/03/12 03:02:00;;;;;;;34.90;14.35;;;;;;;-11.53;67.58;101126.13;1734495;82;21291;-75
2021/03/12 03:05:21;;;;;;;20.80;7.87;;;;;;;-11.55;67.72;101129.25;1677419;83;21291;-75
2021/03/12 03:08:26;;;;;;;25.70;11.12;;;;;;;-11.57;67.82;101124.41;1727967;83;21849;-75
2021/03/12 03:11:31;;;;;;;20.17;8.58;;;;;;;-11.57;67.75;101122.67;1727973;83;21267;-75
2021/03/12 03:14:37;;;;;;;36.80;11.75;;;;;;;-11.59;67.90;101125.31;1727990;83;21275;-75
2021/03/12 03:17:44;;;;;;;22.10;10.68;;;;;;;-11.59;68.12;101114.75;1727838;83;21912;-75
2021/03/12 03:20:53;;;;;;;24.53;10.53;;;;;;;-11.57;68.37;101109.89;1728275;83;21860;-75
2021/03/12 03:23:58;;;;;;;21.60;9.33;;;;;;;-11.60;68.56;101110.82;1728035;83;21290;-75
2021/03/12 03:27:04;;;;;;;21.45;9.65;;;;;;;-11.62;68.34;101102.02;1727900;83;21789;-75
2021/03/12 03:30:14;;;;;;;40.92;12.07;;;;;;;-11.63;68.37;101105.56;1727985;83;21299;-75
2021/03/12 03:33:20;;;;;;;21.52;7.67;;;;;;;-11.64;68.43;101109.10;1727932;83;21354;-75
2021/03/12 03:36:28;;;;;;;22.13;9.70;;;;;;;-11.64;68.32;101123.17;1726384;83;21167;-75
2021/03/12 03:39:32;;;;;;;22.22;8.30;;;;;;;-11.67;68.15;101119.69;1727929;83;21270;-75
2021/03/12 03:42:37;;;;;;;21.82;8.73;;;;;;;-11.69;67.82;101121.48;1727894;83;21828;-76
2021/03/12 03:45:43;;;;;;;22.98;9.70;;;;;;;-11.72;67.97;101126.33;1700802;83;21187;-75
2021/03/12 03:48:51;;;;;;;32.23;9.88;;;;;;;-11.75;68.19;101126.84;1727965;83;21302;-75
2021/03/12 03:51:59;;;;;;;31.27;10.23;;;;;;;-11.79;68.37;101123.34;1727585;83;21298;-75
2021/03/12 03:55:06;;;;;;;27.07;11.93;;;;;;;-11.82;68.63;101115.94;1727900;83;21293;-75
2021/03/12 03:58:11;;;;;;;28.23;11.45;;;;;;;-11.81;68.65;101116.32;1727790;83;21321;-75
2021/03/12 04:01:16;;;;;;;21.52;8.78;;;;;;;-11.84;68.34;101117.73;1727908;83;21282;-75
2021/03/12 04:04:21;;;;;;;29.87;9.65;;;;;;;-11.88;68.31;101116.43;1700571;83;21275;-75
2021/03/12 04:07:27;;;;;;;40.75;10.53;;;;;;;-11.88;68.55;101123.48;1725980;82;21732;-75
2021/03/12 04:10:33;;;;;;;29.50;9.63;;;;;;;-11.88;68.27;101124.80;1726937;83;21209;-75
2021/03/12 04:13:39;;;;;;;26.80;12.53;;;;;;;-11.94;68.20;101123.09;1726411;83;21827;-75
2021/03/12 04:16:47;;;;;;;27.00;10.25;;;;;;;-11.96;68.53;101123.98;1726449;81;21344;-75
2021/03/12 04:19:54;;;;;;;33.58;9.58;;;;;;;-11.95;68.51;101127.05;1708955;83;21130;-75
2021/03/12 04:22:59;;;;;;;41.15;9.60;;;;;;;-11.92;68.60;101129.67;1726901;81;21355;-76
2021/03/12 04:26:05;;;;;;;24.98;10.15;;;;;;;-11.93;68.34;101127.92;1726926;83;21778;-75
2021/03/12 04:29:10;;;;;;;25.37;10.88;;;;;;;-11.94;68.47;101140.25;1722740;83;21359;-75
2021/03/12 04:32:15;;;;;;;33.80;11.25;;;;;;;-11.94;68.51;101131.46;1721875;83;21300;-75
2021/03/12 04:35:22;;;;;;;30.57;8.43;;;;;;;-11.90;68.70;101134.47;1725847;83;21324;-76
2021/03/12 04:38:26;;;;;;;32.40;11.03;;;;;;;-11.84;68.90;101134.87;1770708;79;21264;-75
2021/03/12 04:41:32;;;;;;;39.08;15.60;;;;;;;-11.77;68.82;101129.47;1760799;81;21256;-75
2021/03/12 04:44:38;;;;;;;21.73;10.13;;;;;;;-11.68;68.97;101139.92;1771079;81;21256;-75
2021/03/12 04:47:43;;;;;;;20.68;9.15;;;;;;;-11.60;68.85;101134.12;1771502;81;21829;-75
2021/03/12 04:50:50;;;;;;;30.97;11.78;;;;;;;-11.46;68.76;101134.42;1734658;82;21263;-75
2021/03/12 04:53:55;;;;;;;26.60;14.50;;;;;;;-11.37;68.20;101123.75;1771048;81;21838;-75
2021/03/12 04:57:01;;;;;;;28.83;9.73;;;;;;;-11.35;68.23;101125.47;1771784;81;21299;-75
2021/03/12 05:00:04;;;;;;;26.15;10.53;;;;;;;-11.31;68.06;101121.48;1771813;81;21280;-75
2021/03/12 05:03:20;;;;;;;35.43;15.30;;;;;;;-11.24;68.46;101108.60;1750207;81;21818;-75
2021/03/12 05:06:25;;;;;;;19.17;8.43;;;;;;;-11.17;68.44;101105.88;1742551;79;21811;-75
2021/03/12 05:09:33;;;;;;;24.37;9.83;;;;;;;-11.12;67.75;101086.87;1784904;80;21129;-75
2021/03/12 05:12:40;;;;;;;30.85;8.88;;;;;;;-11.13;67.35;101086.45;1778068;79;21877;-75
2021/03/12 05:15:47;;;;;;;22.42;8.88;;;;;;;-11.17;67.18;101092.66;1784310;80;21326;-75
2021/03/12 05:18:54;;;;;;;19.55;9.60;;;;;;;-11.16;67.62;101083.84;1792919;79;21145;-78
2021/03/12 05:22:03;;;;;;;28.32;11.63;;;;;;;-11.12;67.57;101080.27;1771582;80;21223;-78
2021/03/12 05:25:12;;;;;;;29.20;10.88;;;;;;;-11.03;67.47;101086.32;1785743;79;21755;-78
2021/03/12 05:28:17;;;;;;;41.48;13.15;;;;;;;-10.94;68.06;101089.70;1774451;79;21678;-77
2021/03/12 05:31:23;;;;;;;33.92;13.05;;;;;;;-10.75;68.17;101107.48;1765746;79;21272;-78
2021/03/12 05:34:29;;;;;;;21.25;10.35;;;;;;;-10.57;67.69;101114.27;1779220;79;21242;-77
2021/03/12 05:37:36;;;;;;;30.75;10.72;;;;;;;-10.43;67.00;101129.92;1778736;79;21255;-78
2021/03/12 05:40:44;;;;;;;29.05;12.50;;;;;;;-10.36;66.42;101131.56;1743406;80;21274;-78
2021/03/12 05:43:53;;;;;;;35.30;13.00;;;;;;;-10.30;66.59;101143.39;1710000;81;21264;-78
2021/03/12 05:46:58;;;;;;;38.63;13.18;;;;;;;-10.17;66.39;101156.78;1746775;80;22120;-77
2021/03/12 05:50:04;;;;;;;29.27;12.15;;;;;;;-10.10;66.05;101159.77;1744749;80;21262;-78
2021/03/12 05:53:10;;;;;;;34.70;13.32;;;;;;;-10.01;66.00;101155.22;1701096;82;21837;-78
2021/03/12 05:56:15;;;;;;;41.10;14.30;;;;;;;-9.95;65.60;101136.58;1707119;81;21355;-78
2021/03/12 05:59:24;;;;;;;39.03;12.75;;;;;;;-9.92;65.48;101120.66;1737951;80;21325;-78
2021/03/12 06:02:33;;;;;;;54.35;16.07;;;;;;;-9.90;65.63;101125.00;1734145;81;21997;-78
2021/03/12 06:05:41;;;;;;;45.90;15.35;;;;;;;-9.88;65.51;101123.64;1731172;81;21358;-79
2021/03/12 06:08:48;;;;;;;56.90;20.30;;;;;;;-9.81;66.15;101126.62;1726639;81;21291;-81
2021/03/12 06:11:55;;;;;;;66.12;19.40;;;;;;;-9.65;65.96;101130.70;1718434;81;21292;-80
2021/03/12 06:15:10;;;;;;;41.98;14.80;;;;;;;-9.50;66.35;101119.39;1765162;79;22271;-81
2021/03/12 06:18:25;;;;;;;51.02;16.35;;;;;;;-9.29;66.19;101109.25;1764941;79;21277;-82
2021/03/12 06:21:35;;;;;;;83.07;22.95;;;;;;;-9.13;65.04;101108.46;1767599;79;21748;-82
2021/03/12 06:24:54;;;;;;;94.03;28.02;;;;;;;-9.06;65.25;101115.39;1768151;79;21335;-81
2021/03/12 06:28:05;;;;;;;81.22;28.62;;;;;;;-8.85;65.06;101122.45;1755014;79;21830;-83
2021/03/12 06:31:34;;;;;;;93.22;29.85;;;;;;;-8.60;64.97;101115.70;1755112;79;21231;-81
2021/03/12 06:35:10;;;;;;;64.03;21.93;;;;;;;-8.35;64.36;101105.78;1761654;79;21261;-80
2021/03/12 06:38:23;;;;;;;41.53;16.37;;;;;;;-8.16;63.68;101104.41;1764265;79;21318;-80
2021/03/12 06:41:46;;;;;;;57.00;15.38;;;;;;;-7.98;63.00;101109.25;1763635;79;21165;-80
2021/03/12 06:44:55;;;;;;;33.98;14.33;;;;;;;-7.82;62.95;101107.52;1760846;79;21157;-75
2021/03/12 06:48:21;;;;;;;31.25;11.35;;;;;;;-7.64;62.80;101111.47;1761207;79;21190;-76
2021/03/12 06:52:09;;;;;;;21.73;10.18;;;;;;;-7.51;61.52;101118.19;1763186;79;21193;-76
2021/03/12 06:55:15;;;;;;;30.08;10.38;;;;;;;-7.46;61.02;101122.46;1763648;79;21919;-77
2021/03/12 06:58:22;;;;;;;26.00;10.53;;;;;;;-7.42;60.86;101115.73;1759077;79;21169;-76
2021/03/12 07:01:30;;;;;;;23.50;10.55;;;;;;;-7.35;60.60;101117.30;1764352;79;21583;-76
2021/03/12 07:04:38;;;;;;;14.47;7.85;;;;;;;-7.27;60.86;101110.84;1720799;81;21912;-77
2021/03/12 07:08:05;;;;;;;13.53;7.15;;;;;;;-7.16;59.95;101114.98;1762160;79;21200;-76
2021/03/12 07:11:35;;;;;;;19.23;8.38;;;;;;;-7.07;59.36;101099.62;1739080;80;21298;-76
2021/03/12 07:14:57;;;;;;;13.65;7.30;;;;;;;-7.04;59.26;101104.00;1741432;80;21687;-76
2021/03/12 07:18:05;;;;;;;15.20;8.58;;;;;;;-7.03;59.17;101087.98;1738725;80;21692;-76
2021/03/12 07:21:15;;;;;;;15.10;8.63;;;;;;;-6.99;59.64;101101.61;1693699;81;21282;-77
2021/03/12 07:24:24;;;;;;;;;;;;;;;-6.80;59.11;101111.69;1717392;80;21911;-76
2021/03/12 07:27:29;;;;;;;18.48;7.90;;;;;;;-6.60;59.50;101127.90;1728567;80;20261;-77
2021/03/12 07:30:38;;;;;;;20.85;8.25;;;;;;;-6.37;58.60;101144.94;1737802;80;21836;-77
2021/03/12 07:33:44;;;;;;;37.85;7.87;;;;;;;-6.22;57.98;101150.64;1741173;80;22352;-79
2021/03/12 07:36:57;;;;;;;20.27;8.08;;;;;;;-6.05;58.47;101143.44;1742901;80;21317;-79
2021/03/12 07:39:56;;;;;;;22.55;8.38;;;;;;;-5.83;57.68;101120.92;1740262;80;21148;-81
2021/03/12 07:43:20;;;;;;;23.18;7.08;;;;;;;-5.66;58.38;101110.98;1741079;80;21661;-78
2021/03/12 07:46:28;;;;;;;16.05;7.37;;;;;;;-5.39;57.28;101109.14;1696814;82;21232;-81
2021/03/12 07:49:39;;;;;;;16.85;8.23;;;;;;;-5.32;54.97;101100.44;1676072;84;21598;-80
2021/03/12 07:52:59;;;;;;;18.15;7.50;;;;;;;-5.42;55.09;101091.44;1699188;82;21566;-80
2021/03/12 07:56:30;;;;;;;16.42;7.42;;;;;;;-5.49;54.76;101081.94;1687827;83;21924;-77
2021/03/12 08:00:00;;;;;;;13.90;6.87;;;;;;;-5.55;53.89;101069.27;1688420;83;22395;-79
2021/03/12 08:03:07;;;;;;;20.43;8.18;;;;;;;-5.57;55.40;101076.48;1686424;83;21199;-75
2021/03/12 08:06:34;;;;;;;11.55;6.70;;;;;;;-5.35;54.21;101086.77;1686835;84;21809;-80
2021/03/12 08:09:43;;;;;;;17.55;6.20;;;;;;;-5.33;52.36;101086.70;1681526;83;21298;-77
2021/03/12 08:12:52;;;;;;;18.92;7.83;;;;;;;-5.36;52.33;101087.70;1723667;81;21169;-76
2021/03/12 08:16:14;;;;;;;16.55;7.53;;;;;;;-5.37;53.20;101089.07;1773095;79;21274;-80
2021/03/12 08:19:42;;;;;;;16.10;5.92;;;;;;;-5.34;52.15;101091.64;1771012;79;22181;-77
2021/03/12 08:22:51;;;;;;;10.53;5.37;;;;;;;-5.22;52.21;101091.20;1773301;79;21188;-77
2021/03/12 08:25:59;;;;;;;13.55;6.90;;;;;;;-5.06;51.62;101087.01;1777004;79;21915;-77
2021/03/12 08:29:06;;;;;;;18.98;6.47;;;;;;;-4.82;52.17;101081.66;1771940;79;21315;-77
2021/03/12 08:32:45;;;;;;;13.40;6.37;;;;;;;-4.62;52.93;101078.59;1756383;79;21402;-81
2021/03/12 08:36:00;;;;;;;19.87;7.10;;;;;;;-4.54;51.48;101079.62;1772235;79;21294;-80
2021/03/12 08:39:35;;;;;;;17.67;6.97;;;;;;;-4.55;51.69;101080.56;1777169;79;21307;-79
2021/03/12 08:43:09;;;;;;;12.43;7.20;;;;;;;-4.51;52.79;101063.97;1677958;84;21930;-81
2021/03/12 08:46:35;;;;;;;13.43;6.85;;;;;;;-4.18;52.11;101074.59;1718608;82;21776;-80
2021/03/12 08:49:45;;;;;;;18.02;7.15;;;;;;;-3.97;51.25;101067.92;1717382;82;21166;-80
2021/03/12 08:53:07;;;;;;;12.50;6.60;;;;;;;-3.81;51.45;101055.66;1725264;82;21219;-80
2021/03/12 08:56:41;;;;;;;10.18;5.97;;;;;;;-3.66;49.37;101060.80;1727743;82;21571;-80
2021/03/12 09:04:24;;;;;;;12.58;5.42;;;;;;;-3.75;47.92;101043.81;1674038;84;21190;-80
2021/03/12 09:08:04;;;;;;;18.73;5.95;;;;;;;-3.85;47.26;101040.68;1717784;82;21247;-80
2021/03/12 09:11:25;;;;;;;12.05;5.90;;;;;;;-3.76;46.92;101063.00;1710643;82;21211;-80
2021/03/12 09:14:40;;;;;;;8.35;4.50;;;;;;;-3.48;48.28;101066.66;1718477;82;21240;-82
2021/03/12 09:17:48;;;;;;;16.82;6.25;;;;;;;-3.30;45.95;101054.23;1682069;83;21341;-79
2021/03/12 09:21:01;;;;;;;18.32;6.42;;;;;;;-3.42;45.44;101054.34;1688490;83;21496;-80
2021/03/12 09:24:36;;;;;;;;;;;;;;;;;;;;;
2021/03/12 09:27:32;;;;;;;12.37;5.70;;;;;;;-3.62;46.21;101028.97;1667300;84;21235;-79
2021/03/12 09:30:47;;;;;;;15.07;7.40;;;;;;;-3.63;47.06;101025.88;1691946;83;21302;-79
2021/03/12 09:34:09;;;;;;;12.43;6.40;;;;;;;-3.54;48.23;101019.25;1680541;83;21303;-79
2021/03/12 09:37:25;;;;;;;10.32;5.67;;;;;;;-3.37;48.06;101026.05;1677139;83;21153;-79
2021/03/12 09:41:05;;;;;;;13.55;6.30;;;;;;;-3.24;48.24;101015.18;1679005;83;21279;-79
2021/03/12 09:44:33;;;;;;;12.18;6.37;;;;;;;-3.10;47.86;101010.52;1647208;85;21159;-81
2021/03/12 09:47:59;;;;;;;12.23;5.70;;;;;;;-3.03;47.57;101007.94;1641254;85;21300;-80
2021/03/12 09:51:14;;;;;;;17.45;7.22;;;;;;;-3.04;46.65;101012.90;1843905;76;22219;-75
2021/03/12 09:54:20;;;;;;;21.85;6.80;;;;;;;-3.01;47.20;101020.80;1818543;77;21599;-75
2021/03/12 09:57:28;;;;;;;13.65;7.10;;;;;;;-2.92;47.61;101024.34;1816608;77;21708;-75
2021/03/12 10:00:43;;;;;;;13.60;7.20;;;;;;;-2.84;48.66;101022.65;1811472;76;28070;-75
2021/03/12 10:03:52;;;;;;;13.17;7.37;;;;;;;-2.76;48.19;101002.20;1767855;80;21164;-75
2021/03/12 10:07:11;;;;;;;14.83;7.35;;;;;;;-2.65;48.51;101004.74;1766748;79;21980;-79
2021/03/12 10:10:38;;;;;;;16.05;6.85;;;;;;;-2.61;48.87;100997.43;1769382;80;21805;-78
2021/03/12 10:13:54;;;;;;;16.27;7.97;;;;;;;-2.55;49.30;100990.42;1762575;80;21858;-77
2021/03/12 10:17:26;;;;;;;11.68;6.75;;;;;;;-2.54;48.90;100985.48;1747837;80;21191;-76
2021/03/12 10:20:42;;;;;;;14.85;6.80;;;;;;;-2.70;49.91;100978.66;1743870;80;21227;-76
2021/03/12 10:24:05;;;;;;;18.90;7.15;;;;;;;-2.68;50.06;100978.58;1769055;79;21329;-77
2021/03/12 10:27:10;;;;;;;15.32;7.92;;;;;;;-2.55;49.98;100965.45;1762323;80;21188;-76
2021/03/12 10:30:22;;;;;;;11.97;7.35;;;;;;;-2.44;50.38;100949.72;1766000;79;21143;-78
2021/03/12 10:33:31;;;;;;;12.18;7.10;;;;;;;-2.34;49.32;100936.24;1763645;79;21230;-76
2021/03/12 10:36:37;;;;;;;19.23;7.42;;;;;;;-2.38;50.39;100938.20;1765160;80;21170;-76
2021/03/12 10:39:53;;;;;;;14.33;7.70;;;;;;;-2.44;49.55;100926.47;1709915;82;21529;-75
2021/03/12 10:43:00;;;;;;;11.00;6.90;;;;;;;-2.58;50.56;100923.63;1732677;81;21790;-81
2021/03/12 10:46:17;;;;;;;17.07;7.15;;;;;;;-2.66;50.78;100919.98;1711930;82;21228;-78
2021/03/12 10:49:36;;;;;;;17.85;8.18;;;;;;;-2.62;51.63;100920.71;1703847;82;21754;-79
2021/03/12 10:52:42;;;;;;;16.62;8.83;;;;;;;-2.60;50.26;100908.09;1713456;82;21208;-75
2021/03/12 10:55:55;;;;;;;19.77;8.55;;;;;;;-2.58;51.66;100896.84;1719364;82;21187;-76
2021/03/12 10:59:06;;;;;;;15.38;7.67;;;;;;;-2.51;51.75;100900.06;1720376;82;21674;-76
2021/03/12 11:02:20;;;;;;;16.15;7.78;;;;;;;-2.41;52.08;100884.77;1646445;84;21223;-76
2021/03/12 11:05:26;;;;;;;20.00;7.15;;;;;;;-2.23;51.11;100883.42;1667932;85;21200;-76
2021/03/12 11:08:34;;;;;;;16.42;7.33;;;;;;;-2.02;50.35;100877.37;1674240;84;21864;-77
2021/03/12 11:11:43;;;;;;;22.65;6.28;;;;;;;-1.90;48.85;100866.00;1673461;84;21282;-76
2021/03/12 11:14:47;;;;;;;17.30;7.42;;;;;;;-1.82;48.36;100861.09;1668335;84;21240;-76
2021/03/12 11:17:52;;;;;;;14.13;7.72;;;;;;;-1.78;48.48;100875.21;1667136;85;21896;-80
2021/03/12 11:20:58;;;;;;;12.53;6.85;;;;;;;-1.67;49.38;100860.72;1666918;84;21876;-80
2021/03/12 11:24:04;;;;;;;17.10;7.70;;;;;;;-1.57;48.02;100860.59;1658712;84;21200;-81
2021/03/12 11:27:09;;;;;;;14.30;6.97;;;;;;;-1.64;47.75;100857.87;1669203;84;22231;-79
2021/03/12 11:30:19;;;;;;;17.75;6.83;;;;;;;-1.73;49.70;100854.36;1694316;83;21185;-79
2021/03/12 11:33:24;;;;;;;12.33;6.95;;;;;;;-1.69;49.49;100854.59;1689707;83;21558;-76
2021/03/12 11:36:31;;;;;;;26.27;7.87;;;;;;;-1.66;48.35;100839.16;1693128;83;21743;-77
2021/03/12 11:39:37;;;;;;;18.50;6.92;;;;;;;-1.66;48.96;100826.23;1668682;85;21225;-77
2021/03/12 11:42:44;;;;;;;14.45;6.67;;;;;;;-1.64;47.82;100831.91;1670379;84;21635;-75
2021/03/12 11:45:49;;;;;;;23.92;8.18;;;;;;;-1.61;48.32;100814.28;1690446;84;21841;-78
2021/03/12 11:48:56;;;;;;;12.68;6.65;;;;;;;-1.55;47.87;100806.39;1669883;85;21307;-80
2021/03/12 11:52:07;;;;;;;13.60;8.00;;;;;;;-1.48;47.77;100806.41;1699491;83;21310;-82
2021/03/12 11:55:13;;;;;;;16.25;6.65;;;;;;;-1.45;47.37;100797.34;1669323;85;21319;-78
2021/03/12 11:58:20;;;;;;;15.65;6.90;;;;;;;-1.44;45.94;100789.67;1666299;85;21860;-78
2021/03/12 12:01:26;;;;;;;12.63;5.75;;;;;;;-1.46;46.27;100784.38;1680899;83;21211;-80
2021/03/12 12:04:31;;;;;;;14.93;6.47;;;;;;;-1.41;44.84;100776.95;1757121;81;22034;-78
2021/03/12 12:08:08;;;;;;;14.50;6.12;;;;;;;-1.46;44.01;100776.32;1755115;81;21315;-78
2021/03/12 12:11:14;;;;;;;12.78;6.28;;;;;;;-1.56;43.76;100759.03;1752258;81;21589;-77
2021/03/12 12:14:21;;;;;;;13.75;6.47;;;;;;;-1.58;44.93;100748.87;1752734;81;21480;-77
2021/03/12 12:17:26;;;;;;;16.73;6.97;;;;;;;-1.63;45.02;100745.59;1748330;80;21195;-79
2021/03/12 12:21:02;;;;;;;12.93;5.40;;;;;;;-1.63;45.87;100743.77;1741086;80;21148;-81
2021/03/12 12:24:09;;;;;;;13.83;6.15;;;;;;;-1.54;46.34;100742.38;1754583;81;21921;-80
2021/03/12 12:27:16;;;;;;;13.10;6.10;;;;;;;-1.53;44.72;100729.34;1739440;80;22184;-78
2021/03/12 12:30:23;;;;;;;16.32;5.92;;;;;;;-1.60;44.75;100734.67;1754271;81;21299;-78
2021/03/12 12:33:30;;;;;;;10.85;5.65;;;;;;;-1.61;45.27;100735.63;1755475;80;21271;-79
2021/03/12 12:36:36;;;;;;;18.87;6.58;;;;;;;-1.56;46.56;100734.41;1757103;80;21264;-78
2021/03/12 12:39:41;;;;;;;13.95;5.95;;;;;;;-1.44;45.54;100726.61;1757938;81;21284;-77
2021/03/12 12:42:47;;;;;;;15.10;6.20;;;;;;;-1.39;44.83;100731.23;1757238;80;21277;-79
2021/03/12 12:45:53;;;;;;;11.43;5.72;;;;;;;-1.41;44.14;100727.75;1724185;82;21291;-78
2021/03/12 12:49:02;;;;;;;13.15;6.42;;;;;;;-1.42;45.02;100730.06;1718561;82;21920;-81
2021/03/12 12:52:10;;;;;;;20.30;6.33;;;;;;;-1.40;45.38;100730.85;1718144;82;21318;-81
2021/03/12 12:55:17;;;;;;;10.90;5.72;;;;;;;-1.35;45.14;100728.28;1721007;82;21817;-81
2021/03/12 12:58:23;;;;;;;12.93;5.40;;;;;;;-1.31;45.31;100732.52;1756360;80;21339;-81
2021/03/12 13:01:29;;;;;;;13.18;5.00;;;;;;;-1.32;44.44;100737.50;1753981;80;21177;-79
2021/03/12 13:04:36;;;;;;;17.67;6.28;;;;;;;-1.33;44.85;100736.23;1762921;80;21258;-77
2021/03/12 13:07:43;;;;;;;13.80;6.12;;;;;;;-1.36;44.99;100725.22;1706235;82;21876;-78
2021/03/12 13:10:48;;;;;;;13.13;5.78;;;;;;;-1.38;45.13;100729.79;1701738;82;21187;-80
2021/03/12 13:13:55;;;;;;;14.75;6.65;;;;;;;-1.31;46.24;100726.28;1699171;82;21307;-80
2021/03/12 13:17:02;;;;;;;16.00;5.72;;;;;;;-1.23;44.94;100729.84;1696416;83;21197;-81
2021/03/12 13:20:08;;;;;;;9.35;5.35;;;;;;;-1.20;45.59;100725.64;1761165;80;21712;-76
2021/03/12 13:23:14;;;;;;;16.65;6.45;;;;;;;-1.16;44.69;100730.73;1763919;80;21309;-75
2021/03/12 13:26:20;;;;;;;14.47;6.42;;;;;;;-1.16;44.21;100733.91;1763749;80;21306;-77
2021/03/12 13:29:25;;;;;;;9.90;5.67;;;;;;;-1.16;44.45;100734.77;1766070;80;22121;-77
2021/03/12 13:32:30;;;;;;;11.53;5.33;;;;;;;-1.22;44.06;100737.83;1772866;80;21302;-77
2021/03/12 13:35:36;;;;;;;10.58;6.10;;;;;;;-1.29;44.74;100725.22;1770743;80;21275;-77
2021/03/12 13:38:43;;;;;;;8.93;5.03;;;;;;;-1.31;44.50;100727.63;1767763;80;21251;-77
2021/03/12 13:41:49;;;;;;;8.45;4.70;;;;;;;-1.31;44.92;100725.80;1770002;80;21282;-77
2021/03/12 13:44:54;;;;;;;14.18;5.08;;;;;;;-1.26;44.44;100739.44;1770523;79;21754;-77
2021/03/12 13:47:59;;;;;;;9.33;5.10;;;;;;;-1.19;44.75;100730.91;1770612;80;21365;-80
2021/03/12 13:51:05;;;;;;;10.88;4.92;;;;;;;-1.13;45.25;100729.22;1771089;80;21201;-79
2021/03/12 13:54:11;;;;;;;10.00;5.08;;;;;;;-1.08;44.71;100735.66;1769575;80;21133;-80
2021/03/12 13:57:17;;;;;;;15.93;5.00;;;;;;;-1.04;45.63;100731.81;1705250;82;21248;-79
2021/03/12 14:00:24;;;;;;;11.63;4.85;;;;;;;-0.97;45.58;100729.64;1761477;80;21726;-79
2021/03/12 14:03:31;;;;;;;10.85;4.50;;;;;;;-0.91;45.56;100728.77;1758588;80;21842;-77
2021/03/12 14:06:39;;;;;;;15.20;4.95;;;;;;;-0.93;43.99;100719.96;1730610;82;21157;-77
2021/03/12 14:09:44;;;;;;;13.22;4.85;;;;;;;-0.97;43.86;100717.07;1727227;82;21217;-77
2021/03/12 14:12:54;;;;;;;9.60;5.10;;;;;;;-0.99;44.15;100727.02;1736012;82;21176;-77
2021/03/12 14:16:17;;;;;;;14.33;4.53;;;;;;;-0.99;45.06;100731.05;1724948;82;21533;-77
2021/03/12 14:19:25;;;;;;;13.05;4.65;;;;;;;-0.96;44.30;100726.85;1729416;81;21299;-77
2021/03/12 14:22:30;;;;;;;7.78;4.30;;;;;;;-0.99;43.06;100717.63;1734628;82;21294;-77
2021/03/12 14:25:37;;;;;;;11.97;4.95;;;;;;;-1.05;43.46;100726.06;1732567;81;21264;-77
2021/03/12 14:29:02;;;;;;;11.35;4.35;;;;;;;-1.13;44.51;100727.88;1727941;81;21746;-79
2021/03/12 14:32:07;;;;;;;12.65;4.90;;;;;;;-1.16;44.79;100725.85;1725200;82;21295;-77
2021/03/12 14:35:15;;;;;;;9.48;4.55;;;;;;;-1.17;45.08;100726.81;1730469;82;21287;-78